createdAt,value
2024-03-05T00:01:53.150Z,100051.16
2024-03-05T00:04:21.726Z,100048.38
2024-03-05T00:06:50.746Z,100050.22
2024-03-05T00:09:18.908Z,100058.41
2024-03-05T00:11:47.968Z,100050.44
2024-03-05T00:14:15.890Z,100057.44
2024-03-05T00:16:44.269Z,100055.63
2024-03-05T00:19:13.660Z,100056.47
2024-03-05T00:21:41.669Z,100060.81
2024-03-05T00:24:09.669Z,100060.81
2024-03-05T00:26:39.896Z,100064.22
2024-03-05T00:29:07.976Z,100059.00
2024-03-05T00:31:36.216Z,100058.16
2024-03-05T00:34:04.437Z,100066.97
2024-03-05T00:36:33.641Z,100067.19
2024-03-05T00:39:01.607Z,100068.06
2024-03-05T00:41:29.625Z,100064.91
2024-03-05T00:43:59.352Z,100065.03
2024-03-05T00:46:27.280Z,100073.97
2024-03-05T00:48:57.180Z,100066.22
2024-03-05T00:51:24.951Z,100076.72
2024-03-05T00:53:54.149Z,100070.81
2024-03-05T00:56:22.384Z,100072.84
2024-03-05T00:58:51.726Z,100063.31
2024-03-05T01:01:20.012Z,100065.25
2024-03-05T01:03:48.995Z,100072.13
2024-03-05T01:06:16.907Z,100064.03
2024-03-05T01:08:44.742Z,100066.81
2024-03-05T01:11:14.930Z,100067.78
2024-03-05T01:13:43.295Z,100058.84
2024-03-05T01:16:12.084Z,100061.63
2024-03-05T01:18:40.417Z,100066.94
2024-03-05T01:21:08.334Z,100066.94
2024-03-05T01:23:36.309Z,100064.41
2024-03-05T01:26:04.781Z,100062.13
2024-03-05T01:28:34.174Z,100055.97
2024-03-05T01:31:02.530Z,100048.38
2024-03-05T01:33:31.460Z,100047.50
2024-03-05T01:36:13.126Z,100038.09
2024-03-05T01:38:41.046Z,100042.56
2024-03-05T01:41:12.821Z,100047.88
2024-03-05T01:43:43.177Z,100052.22
2024-03-05T01:46:15.087Z,100048.59
2024-03-05T01:48:44.382Z,100050.28
2024-03-05T01:51:13.257Z,100053.53
2024-03-05T01:53:41.674Z,100058.25
2024-03-05T01:56:10.866Z,100051.34
2024-03-05T01:58:44.364Z,100047.03
2024-03-05T02:01:14.940Z,100047.22
2024-03-05T02:03:42.533Z,100047.47
2024-03-05T02:06:12.109Z,100047.69
2024-03-05T02:08:41.855Z,100048.53
2024-03-05T02:11:10.213Z,100048.53
2024-03-05T02:13:38.696Z,100045.75
2024-03-05T02:16:08.293Z,100053.81
2024-03-05T02:18:36.069Z,100051.91
2024-03-05T02:21:07.439Z,100050.94
2024-03-05T02:23:35.110Z,100049.97
2024-03-05T02:26:03.721Z,100045.75
2024-03-05T02:28:31.910Z,100048.41
2024-03-05T02:30:59.894Z,100048.66
2024-03-05T02:33:27.926Z,100051.66
2024-03-05T02:35:59.650Z,100056.13
2024-03-05T02:38:28.955Z,100055.38
2024-03-05T02:40:56.888Z,100059.13
2024-03-05T02:43:24.697Z,100053.94
2024-03-05T02:45:52.493Z,100049.72
2024-03-05T02:48:20.295Z,100059.69
2024-03-05T02:50:48.474Z,100053.66
2024-03-05T02:53:16.424Z,100055.69
2024-03-05T02:55:46.295Z,100056.78
2024-03-05T02:58:14.105Z,100058.47
2024-03-05T03:00:42.332Z,100059.44
2024-03-05T03:03:10.106Z,100057.63
2024-03-05T03:05:39.366Z,100062.72
2024-03-05T03:08:07.342Z,100066.09
2024-03-05T03:10:35.122Z,100066.19
2024-03-05T03:13:04.351Z,100068.84
2024-03-05T03:15:32.068Z,100067.16
2024-03-05T03:17:59.956Z,100071.41
2024-03-05T03:20:27.689Z,100078.28
2024-03-05T03:22:55.568Z,100068.59
2024-03-05T03:25:23.324Z,100075.38
2024-03-05T03:27:51.399Z,100071.03
2024-03-05T03:30:21.561Z,100071.16
2024-03-05T03:32:51.334Z,100065.34
2024-03-05T03:35:19.704Z,100080.53
2024-03-05T03:37:47.740Z,100078.00
2024-03-05T03:40:22.643Z,100079.69
2024-03-05T03:42:51.952Z,100078.84
2024-03-05T03:45:21.403Z,100077.03
2024-03-05T03:47:49.324Z,100078.63
2024-03-05T03:50:17.609Z,100069.94
2024-03-05T03:52:45.828Z,100075.97
2024-03-05T03:55:13.723Z,100072.59
2024-03-05T03:57:41.699Z,100075.44
2024-03-05T04:00:18.406Z,100084.97
2024-03-05T04:02:48.858Z,100085.84
2024-03-05T04:05:16.752Z,100094.53
2024-03-05T04:07:44.621Z,100089.34
2024-03-05T04:10:12.696Z,100098.25
2024-03-05T04:12:41.158Z,100093.81
2024-03-05T04:15:10.285Z,100095.72
2024-03-05T04:17:38.875Z,100108.13
2024-03-05T04:20:10.585Z,100106.34
2024-03-05T04:22:39.571Z,100098.38
2024-03-05T04:25:08.072Z,100105.47
2024-03-05T04:27:38.592Z,100104.63
2024-03-05T04:30:11.743Z,100101.03
2024-03-05T04:32:42.190Z,100104.63
2024-03-05T04:35:12.519Z,100107.19
2024-03-05T04:37:41.501Z,100111.75
2024-03-05T04:40:11.356Z,100113.66
2024-03-05T04:42:39.373Z,100106.56
2024-03-05T04:45:08.428Z,100108.22
2024-03-05T04:47:37.137Z,100111.66
2024-03-05T04:50:06.282Z,100108.84
2024-03-05T04:52:35.633Z,100115.88
2024-03-05T04:55:03.575Z,100103.34
2024-03-05T04:57:31.356Z,100110.47
2024-03-05T04:59:59.733Z,100106.00
2024-03-05T05:02:27.414Z,100106.09
2024-03-05T05:04:55.144Z,100106.00
2024-03-05T05:07:24.870Z,100105.00
2024-03-05T05:09:53.967Z,100100.56
2024-03-05T05:12:21.798Z,100102.97
2024-03-05T05:14:50.542Z,100107.34
2024-03-05T05:17:18.497Z,100098.41
2024-03-05T05:19:46.256Z,100101.06
2024-03-05T05:22:14.201Z,100101.91
2024-03-05T05:24:43.189Z,100105.53
2024-03-05T05:27:12.252Z,100104.56
2024-03-05T05:29:42.669Z,100107.19
2024-03-05T05:32:10.723Z,100105.53
2024-03-05T05:34:38.636Z,100096.84
2024-03-05T05:37:06.925Z,100102.16
2024-03-05T05:39:34.683Z,100095.03
2024-03-05T05:42:02.448Z,100109.25
2024-03-05T05:44:31.663Z,100104.06
2024-03-05T05:49:32.497Z,100110.94
2024-03-05T05:52:00.527Z,100103.81
2024-03-05T05:54:30.502Z,100104.69
2024-03-05T05:56:58.291Z,100105.53
2024-03-05T05:59:25.957Z,100103.72
2024-03-05T06:01:55.949Z,100108.06
2024-03-05T06:04:23.776Z,100103.72
2024-03-05T06:06:52.477Z,100098.50
2024-03-05T06:09:28.440Z,100109.03
2024-03-05T06:11:57.165Z,100115.91
2024-03-05T06:14:25.094Z,100116.75
2024-03-05T06:16:52.858Z,100115.78
2024-03-05T06:19:21.972Z,100118.34
2024-03-05T06:21:50.329Z,100109.53
2024-03-05T06:24:18.179Z,100115.91
2024-03-05T06:26:46.547Z,100119.41
2024-03-05T06:29:15.076Z,100116.75
2024-03-05T06:31:42.894Z,100130.13
2024-03-05T06:34:12.318Z,100130.97
2024-03-05T06:36:42.515Z,100133.63
2024-03-05T06:39:19.990Z,100134.59
2024-03-05T06:41:49.485Z,100144.13
2024-03-05T06:44:22.989Z,100141.38
2024-03-05T06:46:51.105Z,100143.28
2024-03-05T06:49:28.293Z,100140.66
2024-03-05T06:52:17.618Z,100143.16
2024-03-05T06:55:02.963Z,100137.00
2024-03-05T06:57:31.000Z,100129.06
2024-03-05T06:59:59.273Z,100136.06
2024-03-05T07:02:31.547Z,100144.13
2024-03-05T07:04:59.373Z,100143.16
2024-03-05T07:07:28.543Z,100148.34
2024-03-05T07:09:56.302Z,100149.19
2024-03-05T07:12:25.788Z,100148.16
2024-03-05T07:14:53.512Z,100152.63
2024-03-05T07:17:21.412Z,100154.28
2024-03-05T07:19:49.346Z,100161.16
2024-03-05T07:22:17.153Z,100160.44
2024-03-05T07:24:46.873Z,100159.97
2024-03-05T07:27:14.631Z,100160.13
2024-03-05T07:29:42.397Z,100163.38
2024-03-05T07:32:11.417Z,100159.50
2024-03-05T07:34:39.895Z,100160.28
2024-03-05T07:37:07.667Z,100167.41
2024-03-05T07:39:35.364Z,100164.63
2024-03-05T07:42:04.634Z,100170.78
2024-03-05T07:44:34.945Z,100176.81
2024-03-05T07:47:03.042Z,100174.19
2024-03-05T07:49:30.851Z,100181.28
2024-03-05T07:51:58.567Z,100187.59
2024-03-05T07:54:26.333Z,100186.59
2024-03-05T07:56:54.208Z,100190.09
2024-03-05T07:59:23.295Z,100190.09
2024-03-05T08:01:50.995Z,100186.03
2024-03-05T08:04:18.738Z,100186.03
2024-03-05T08:06:46.545Z,100187.97
2024-03-05T08:09:14.449Z,100199.53
2024-03-05T08:11:42.284Z,100201.22
2024-03-05T08:14:10.384Z,100196.75
2024-03-05T08:16:40.615Z,100199.31
2024-03-05T08:19:08.968Z,100198.34
2024-03-05T08:21:36.829Z,100194.00
2024-03-05T08:24:04.896Z,100204.63
2024-03-05T08:26:32.607Z,100196.66
2024-03-05T08:29:00.382Z,100202.69
2024-03-05T08:31:28.198Z,100208.00
2024-03-05T08:33:58.362Z,100201.84
2024-03-05T08:36:26.630Z,100205.25
2024-03-05T08:38:54.655Z,100207.03
2024-03-05T08:41:22.457Z,100199.94
2024-03-05T08:43:50.279Z,100201.50
2024-03-05T08:46:18.105Z,100199.59
2024-03-05T08:48:45.903Z,100192.56
2024-03-05T08:51:15.055Z,100202.13
2024-03-05T08:53:42.805Z,100195.72
2024-03-05T08:56:10.562Z,100200.09
2024-03-05T08:58:38.444Z,100199.13
2024-03-05T09:01:07.714Z,100207.09
2024-03-05T09:03:36.481Z,100210.72
2024-03-05T09:06:06.395Z,100202.03
2024-03-05T09:08:35.737Z,100202.75
2024-03-05T09:11:06.612Z,100202.59
2024-03-05T09:13:35.238Z,100200.81
2024-03-05T09:16:02.968Z,100207.81
2024-03-05T09:18:30.686Z,100206.72
2024-03-05T09:20:58.408Z,100207.59
2024-03-05T09:23:26.130Z,100216.03
2024-03-05T09:25:55.264Z,100212.44
2024-03-05T09:28:23.084Z,100211.47
2024-03-05T09:30:50.853Z,100211.25
2024-03-05T09:33:18.609Z,100209.31
2024-03-05T09:35:46.465Z,100210.03
2024-03-05T09:38:17.520Z,100215.97
2024-03-05T09:40:45.697Z,100215.84
2024-03-05T09:43:15.519Z,100209.56
2024-03-05T09:45:43.838Z,100221.88
2024-03-05T09:48:12.343Z,100219.94
2024-03-05T09:50:41.176Z,100220.69
2024-03-05T09:53:09.020Z,100223.34
2024-03-05T09:55:36.806Z,100224.94
2024-03-05T09:58:10.345Z,100230.13
2024-03-05T10:00:39.799Z,100228.44
2024-03-05T10:03:09.730Z,100229.16
2024-03-05T10:05:38.510Z,100232.53
2024-03-05T10:08:07.399Z,100235.94
2024-03-05T10:10:35.600Z,100233.28
2024-03-05T10:13:03.788Z,100231.34
2024-03-05T10:15:31.950Z,100236.44
2024-03-05T10:18:01.213Z,100240.03
2024-03-05T10:20:30.239Z,100241.75
2024-03-05T10:23:00.497Z,100239.81
2024-03-05T10:25:29.545Z,100248.63
2024-03-05T10:27:58.509Z,100250.47
2024-03-05T10:30:32.058Z,100249.47
2024-03-05T10:33:03.922Z,100252.03
2024-03-05T10:35:34.535Z,100257.34
2024-03-05T10:38:08.504Z,100249.47
2024-03-05T10:40:37.517Z,100258.66
2024-03-05T10:43:06.949Z,100259.84
2024-03-05T10:45:38.607Z,100252.34
2024-03-05T10:48:11.353Z,100260.19
2024-03-05T10:50:42.324Z,100262.75
2024-03-05T10:53:11.118Z,100263.47
2024-03-05T10:55:40.551Z,100256.25
2024-03-05T10:58:38.060Z,100253.34
2024-03-05T11:01:08.214Z,100257.44
2024-03-05T11:03:40.510Z,100257.44
2024-03-05T11:06:09.889Z,100263.50
2024-03-05T11:08:38.859Z,100253.84
2024-03-05T11:11:09.653Z,100258.19
2024-03-05T11:13:38.535Z,100261.09
2024-03-05T11:16:07.895Z,100267.13
2024-03-05T11:18:37.466Z,100268.81
2024-03-05T11:21:09.998Z,100268.19
2024-03-05T11:23:38.373Z,100266.41
2024-03-05T11:26:08.777Z,100263.97
2024-03-05T11:28:37.678Z,100262.03
2024-03-05T11:31:15.367Z,100261.09
2024-03-05T11:33:45.256Z,100271.56
2024-03-05T11:36:21.704Z,100261.19
2024-03-05T11:39:05.821Z,100260.09
2024-03-05T11:41:34.490Z,100257.44
2024-03-05T11:44:04.050Z,100264.09
2024-03-05T11:46:46.023Z,100268.47
2024-03-05T11:49:14.772Z,100265.47
2024-03-05T11:51:46.715Z,100269.47
2024-03-05T11:54:15.724Z,100272.47
2024-03-05T11:56:46.383Z,100256.78
2024-03-05T11:59:14.936Z,100261.72
2024-03-05T12:01:45.242Z,100257.75
2024-03-05T12:04:15.843Z,100258.38
2024-03-05T12:06:52.768Z,100256.06
2024-03-05T12:09:22.046Z,100257.06
2024-03-05T12:12:04.010Z,100255.34
2024-03-05T12:14:34.244Z,100252.66
2024-03-05T12:17:05.543Z,100250.97
2024-03-05T12:19:34.237Z,100245.41
2024-03-05T12:22:03.602Z,100247.31
2024-03-05T12:24:32.463Z,100240.75
2024-03-05T12:27:01.316Z,100243.31
2024-03-05T12:29:31.049Z,100245.50
2024-03-05T12:31:59.421Z,100238.41
2024-03-05T12:34:28.536Z,100237.13
2024-03-05T12:36:56.614Z,100238.78
2024-03-05T12:39:25.805Z,100244.94
2024-03-05T12:42:04.840Z,100242.28
2024-03-05T12:44:33.169Z,100235.56
2024-03-05T12:47:11.206Z,100241.75
2024-03-05T12:49:46.561Z,100243.97
2024-03-05T12:52:25.290Z,100236.66
2024-03-05T12:55:00.986Z,100239.56
2024-03-05T12:57:30.363Z,100240.31
2024-03-05T13:00:00.432Z,100237.34
2024-03-05T13:02:28.391Z,100238.19
2024-03-05T13:04:58.974Z,100239.69
2024-03-05T13:07:27.949Z,100238.78
2024-03-05T13:09:56.385Z,100235.22
2024-03-05T13:12:25.722Z,100245.56
2024-03-05T13:14:53.645Z,100239.19
2024-03-05T13:17:22.365Z,100239.72
2024-03-05T13:19:50.394Z,100234.06
2024-03-05T13:22:18.273Z,100239.06
2024-03-05T13:24:46.084Z,100241.13
2024-03-05T13:27:14.027Z,100234.66
2024-03-05T13:29:43.288Z,100241.34
2024-03-05T13:32:12.219Z,100241.00
2024-03-05T13:34:40.740Z,100245.03
2024-03-05T13:37:10.301Z,100254.38
2024-03-05T13:39:45.114Z,100253.09
2024-03-05T13:42:27.102Z,100251.91
2024-03-05T13:44:56.867Z,100250.59
2024-03-05T13:47:25.654Z,100254.34
2024-03-05T13:49:53.633Z,100251.91
2024-03-05T13:52:21.548Z,100249.84
2024-03-05T13:54:49.552Z,100250.56
2024-03-05T13:57:18.003Z,100251.66
2024-03-05T13:59:45.785Z,100244.91
2024-03-05T14:02:15.157Z,100252.16
2024-03-05T14:04:42.974Z,100254.00
2024-03-05T14:07:11.366Z,100258.59
2024-03-05T14:09:39.284Z,100259.44
2024-03-05T14:12:13.006Z,100249.78
2024-03-05T14:14:43.113Z,100254.00
2024-03-05T14:17:11.571Z,100253.00
2024-03-05T14:19:40.774Z,100251.31
2024-03-05T14:22:08.860Z,100247.91
2024-03-05T14:24:38.756Z,100251.41
2024-03-05T14:27:06.928Z,100255.88
2024-03-05T14:29:34.793Z,100256.94
2024-03-05T14:32:05.304Z,100257.78
2024-03-05T14:34:33.561Z,100256.44
2024-03-05T14:37:04.786Z,100253.25
2024-03-05T14:39:32.638Z,100263.56
2024-03-05T14:42:02.160Z,100256.28
2024-03-05T14:44:30.034Z,100257.06
2024-03-05T14:46:58.000Z,100259.84
2024-03-05T14:49:26.386Z,100258.75
2024-03-05T14:51:55.415Z,100254.31
2024-03-05T14:54:25.172Z,100253.25
2024-03-05T14:56:52.984Z,100253.94
2024-03-05T14:59:21.510Z,100258.16
2024-03-05T15:01:52.835Z,100259.84
2024-03-05T15:04:20.783Z,100261.53
2024-03-05T15:06:48.942Z,100264.09
2024-03-05T15:09:17.485Z,100266.41
2024-03-05T15:11:47.608Z,100273.84
2024-03-05T15:14:15.650Z,100267.75
2024-03-05T15:16:44.000Z,100266.56
2024-03-05T15:19:12.147Z,100260.53
2024-03-05T15:21:40.234Z,100269.63
2024-03-05T15:24:08.184Z,100271.72
2024-03-05T15:26:36.563Z,100264.66
2024-03-05T15:29:10.322Z,100270.00
2024-03-05T15:31:38.107Z,100265.78
2024-03-05T15:34:06.617Z,100265.91
2024-03-05T15:36:34.571Z,100270.00
2024-03-05T15:39:04.435Z,100266.50
2024-03-05T15:41:32.530Z,100264.94
2024-03-05T15:44:00.680Z,100259.84
2024-03-05T15:46:29.956Z,100262.53
2024-03-05T15:48:57.872Z,100259.28
2024-03-05T15:51:25.737Z,100266.78
2024-03-05T15:53:53.598Z,100259.69
2024-03-05T15:56:35.809Z,100266.34
2024-03-05T15:59:21.981Z,100262.84
2024-03-05T16:01:51.351Z,100270.75
2024-03-05T16:04:39.865Z,100265.47
2024-03-05T16:07:10.080Z,100267.59
2024-03-05T16:09:38.822Z,100260.66
2024-03-05T16:12:12.132Z,100271.50
2024-03-05T16:14:42.148Z,100269.38
2024-03-05T16:17:11.999Z,100272.78
2024-03-05T16:19:39.913Z,100275.75
2024-03-05T16:22:09.849Z,100275.84
2024-03-05T16:24:38.606Z,100279.25
2024-03-05T16:27:06.984Z,100278.63
2024-03-05T16:29:34.797Z,100277.44
2024-03-05T16:32:03.087Z,100273.53
2024-03-05T16:34:32.875Z,100278.19
2024-03-05T16:37:00.985Z,100286.28
2024-03-05T16:39:28.802Z,100283.53
2024-03-05T16:41:57.976Z,100280.78
2024-03-05T16:44:26.003Z,100287.72
2024-03-05T16:46:54.941Z,100292.06
2024-03-05T16:49:22.893Z,100297.19
2024-03-05T16:51:52.017Z,100296.25
2024-03-05T16:54:19.783Z,100292.06
2024-03-05T16:56:47.548Z,100293.41
2024-03-05T16:59:16.339Z,100300.44
2024-03-05T17:01:44.174Z,100301.03
2024-03-05T17:04:15.634Z,100304.28
2024-03-05T17:06:44.286Z,100302.25
2024-03-05T17:09:15.841Z,100309.28
2024-03-05T17:11:45.456Z,100310.84
2024-03-05T17:14:13.447Z,100318.47
2024-03-05T17:16:43.131Z,100318.34
2024-03-05T17:19:12.589Z,100323.53
2024-03-05T17:21:40.680Z,100320.72
2024-03-05T17:24:08.508Z,100328.66
2024-03-05T17:26:37.572Z,100328.94
2024-03-05T17:29:08.240Z,100327.69
2024-03-05T17:31:36.081Z,100331.91
2024-03-05T17:34:04.514Z,100330.19
2024-03-05T17:36:32.220Z,100334.19
2024-03-05T17:38:59.947Z,100339.94
2024-03-05T17:41:27.976Z,100339.56
2024-03-05T17:43:57.729Z,100341.09
2024-03-05T17:46:26.559Z,100350.47
2024-03-05T17:48:54.314Z,100335.63
2024-03-05T17:51:22.113Z,100342.84
2024-03-05T17:53:49.953Z,100346.69
2024-03-05T17:56:17.706Z,100349.66
2024-03-05T17:58:45.625Z,100348.34
2024-03-05T18:01:15.326Z,100358.22
2024-03-05T18:03:45.491Z,100351.75
2024-03-05T18:06:17.017Z,100363.06
2024-03-05T18:08:47.285Z,100363.38
2024-03-05T18:11:15.566Z,100368.34
2024-03-05T18:13:44.980Z,100365.41
2024-03-05T18:16:14.835Z,100366.38
2024-03-05T18:18:42.649Z,100360.97
2024-03-05T18:21:10.758Z,100359.38
2024-03-05T18:23:38.556Z,100361.59
2024-03-05T18:26:07.014Z,100361.19
2024-03-05T18:28:36.124Z,100367.75
2024-03-05T18:31:05.512Z,100372.22
2024-03-05T18:33:34.638Z,100365.34
2024-03-05T18:36:03.921Z,100376.25
2024-03-05T18:38:31.806Z,100376.25
2024-03-05T18:41:01.367Z,100374.78
2024-03-05T18:43:31.157Z,100375.75
2024-03-05T18:46:00.639Z,100377.75
2024-03-05T18:48:29.262Z,100380.41
2024-03-05T18:50:58.794Z,100388.69
2024-03-05T18:53:36.347Z,100387.19
2024-03-05T18:56:11.532Z,100396.59
2024-03-05T18:58:39.373Z,100394.03
2024-03-05T19:01:07.287Z,100390.56
2024-03-05T19:03:35.996Z,100395.44
2024-03-05T19:06:05.986Z,100391.09
2024-03-05T19:08:33.762Z,100389.09
2024-03-05T19:11:02.016Z,100394.06
2024-03-05T19:13:30.004Z,100389.63
2024-03-05T19:15:57.819Z,100388.31
2024-03-05T19:18:25.600Z,100388.31
2024-03-05T19:20:53.478Z,100402.56
2024-03-05T19:23:23.992Z,100402.75
2024-03-05T19:25:51.934Z,100405.53
2024-03-05T19:28:20.090Z,100402.22
2024-03-05T19:30:48.135Z,100397.03
2024-03-05T19:33:16.351Z,100398.72
2024-03-05T19:35:45.139Z,100395.22
2024-03-05T19:38:14.467Z,100396.06
2024-03-05T19:40:44.050Z,100395.09
2024-03-05T19:43:11.935Z,100401.16
2024-03-05T19:45:39.975Z,100400.22
2024-03-05T19:48:08.766Z,100398.19
2024-03-05T19:50:36.713Z,100404.03
2024-03-05T19:53:04.792Z,100397.91
2024-03-05T19:55:33.190Z,100400.75
2024-03-05T19:58:02.514Z,100406.78
2024-03-05T20:00:30.635Z,100414.53
2024-03-05T20:02:58.516Z,100410.91
2024-03-05T20:05:27.450Z,100409.25
2024-03-05T20:07:55.547Z,100415.47
2024-03-05T20:10:23.737Z,100412.00
2024-03-05T20:12:51.632Z,100410.31
2024-03-05T20:15:21.710Z,100406.69
2024-03-05T20:17:49.686Z,100411.16
2024-03-05T20:20:18.948Z,100411.78
2024-03-05T20:22:48.648Z,100416.22
2024-03-05T20:25:23.043Z,100421.75
2024-03-05T20:27:52.483Z,100411.34
2024-03-05T20:30:23.878Z,100422.78
2024-03-05T20:32:52.861Z,100423.00
2024-03-05T20:35:21.123Z,100416.88
2024-03-05T20:37:50.384Z,100429.16
2024-03-05T20:40:19.798Z,100424.81
2024-03-05T20:42:48.485Z,100416.13
2024-03-05T20:45:16.787Z,100419.81
2024-03-05T20:47:47.473Z,100422.69
2024-03-05T20:50:15.525Z,100419.06
2024-03-05T20:52:43.617Z,100426.28
2024-03-05T20:55:11.864Z,100419.94
2024-03-05T20:57:40.013Z,100413.00
2024-03-05T21:00:13.254Z,100421.84
2024-03-05T21:02:42.679Z,100422.78
2024-03-05T21:05:14.534Z,100417.56
2024-03-05T21:07:44.819Z,100423.63
2024-03-05T21:10:15.027Z,100415.06
2024-03-05T21:12:43.168Z,100417.69
2024-03-05T21:15:13.586Z,100425.53
2024-03-05T21:17:42.962Z,100420.22
2024-03-05T21:20:13.666Z,100427.44
2024-03-05T21:22:42.570Z,100430.50
2024-03-05T21:25:11.210Z,100430.41
2024-03-05T21:27:40.904Z,100426.91
2024-03-05T21:30:12.881Z,100433.38
2024-03-05T21:32:43.652Z,100435.13
2024-03-05T21:35:13.320Z,100434.50
2024-03-05T21:37:41.368Z,100436.59
2024-03-05T21:40:13.229Z,100438.41
2024-03-05T21:42:42.611Z,100442.09
2024-03-05T21:45:13.113Z,100445.81
2024-03-05T21:47:41.529Z,100447.69
2024-03-05T21:50:12.234Z,100453.22
2024-03-05T21:52:45.763Z,100448.00
2024-03-05T21:55:14.038Z,100454.16
2024-03-05T21:57:41.864Z,100449.66
2024-03-05T22:00:12.483Z,100453.91
2024-03-05T22:02:41.027Z,100452.13
2024-03-05T22:05:09.685Z,100447.44
2024-03-05T22:07:38.137Z,100458.78
2024-03-05T22:10:08.618Z,100450.97
2024-03-05T22:12:38.414Z,100458.03
2024-03-05T22:15:07.258Z,100460.16
2024-03-05T22:17:35.719Z,100466.00
2024-03-05T22:20:03.758Z,100467.72
2024-03-05T22:22:32.103Z,100469.22
2024-03-05T22:25:00.062Z,100473.44
2024-03-05T22:27:29.668Z,100473.34
2024-03-05T22:29:57.508Z,100476.09
2024-03-05T22:32:25.444Z,100473.34
2024-03-05T22:34:53.315Z,100476.84
2024-03-05T22:37:21.158Z,100469.75
2024-03-05T22:39:48.976Z,100477.59
2024-03-05T22:42:16.810Z,100476.75
2024-03-05T22:44:46.050Z,100479.31
2024-03-05T22:47:13.789Z,100475.91
2024-03-05T22:49:41.653Z,100486.28
2024-03-05T22:52:10.169Z,100476.53
2024-03-05T22:54:37.929Z,100487.78
2024-03-05T22:57:05.780Z,100485.72
2024-03-05T22:59:34.774Z,100489.09
2024-03-05T23:02:05.693Z,100493.44
2024-03-05T23:04:33.785Z,100501.59
2024-03-05T23:07:01.575Z,100499.03
2024-03-05T23:09:29.265Z,100499.88
2024-03-05T23:11:57.224Z,100506.16
2024-03-05T23:14:25.075Z,100507.09
2024-03-05T23:16:52.855Z,100506.25
2024-03-05T23:19:21.999Z,100499.44
2024-03-05T23:21:49.808Z,100503.03
2024-03-05T23:24:17.544Z,100507.41
2024-03-05T23:26:48.074Z,100513.63
2024-03-05T23:29:17.059Z,100512.78
2024-03-05T23:31:46.044Z,100504.84
2024-03-05T23:34:14.490Z,100512.03
2024-03-05T23:36:43.793Z,100514.91
2024-03-05T23:39:12.450Z,100519.25
2024-03-05T23:41:40.896Z,100515.00
2024-03-05T23:44:08.930Z,100511.78
2024-03-05T23:46:37.526Z,100508.19
2024-03-05T23:49:05.337Z,100525.16
2024-03-05T23:51:33.087Z,100527.88
2024-03-05T23:54:02.450Z,100526.81
2024-03-05T23:56:30.526Z,100524.19
2024-03-05T23:58:58.287Z,100535.53
